sensor_id;sensor_type;location;lat;lon;timestamp;temperature;humidity
24402;DHT22;12539;48.808;11.292;2023-04-24T00:00:06;13.00;99.90
24402;DHT22;12539;48.808;11.292;2023-04-24T00:02:32;13.00;99.90
24402;DHT22;12539;48.808;11.292;2023-04-24T00:04:58;13.00;99.90
24402;DHT22;12539;48.808;11.292;2023-04-24T00:07:29;12.90;99.90
24402;DHT22;12539;48.808;11.292;2023-04-24T00:09:54;12.90;99.90
24402;DHT22;12539;48.808;11.292;2023-04-24T00:12:20;12.80;99.90
24402;DHT22;12539;48.808;11.292;2023-04-24T00:14:46;12.80;99.90
24402;DHT22;12539;48.808;11.292;2023-04-24T00:17:12;12.80;99.90
24402;DHT22;12539;48.808;11.292;2023-04-24T00:19:38;12.80;99.90
24402;DHT22;12539;48.808;11.292;2023-04-24T00:22:04;12.80;99.90
24402;DHT22;12539;48.808;11.292;2023-04-24T00:24:30;12.90;99.90
24402;DHT22;12539;48.808;11.292;2023-04-24T00:26:55;12.90;99.90
24402;DHT22;12539;48.808;11.292;2023-04-24T00:29:21;13.00;99.90
24402;DHT22;12539;48.808;11.292;2023-04-24T00:31:47;13.00;99.90
24402;DHT22;12539;48.808;11.292;2023-04-24T00:34:12;13.00;99.90
24402;DHT22;12539;48.808;11.292;2023-04-24T00:36:41;13.00;99.90
24402;DHT22;12539;48.808;11.292;2023-04-24T00:39:06;13.00;99.90
24402;DHT22;12539;48.808;11.292;2023-04-24T00:41:34;13.00;99.90
24402;DHT22;12539;48.808;11.292;2023-04-24T00:44:00;13.00;99.90
24402;DHT22;12539;48.808;11.292;2023-04-24T00:46:26;13.00;99.90
24402;DHT22;12539;48.808;11.292;2023-04-24T00:48:52;13.00;99.90
24402;DHT22;12539;48.808;11.292;2023-04-24T00:51:17;13.00;99.90
24402;DHT22;12539;48.808;11.292;2023-04-24T00:53:43;13.00;99.90
24402;DHT22;12539;48.808;11.292;2023-04-24T00:56:09;13.00;99.90
24402;DHT22;12539;48.808;11.292;2023-04-24T00:58:35;13.00;99.90
24402;DHT22;12539;48.808;11.292;2023-04-24T01:01:02;13.00;99.90
24402;DHT22;12539;48.808;11.292;2023-04-24T01:03:29;13.00;99.90
24402;DHT22;12539;48.808;11.292;2023-04-24T01:05:58;13.00;99.90
24402;DHT22;12539;48.808;11.292;2023-04-24T01:08:24;13.00;99.90
24402;DHT22;12539;48.808;11.292;2023-04-24T01:10:52;12.80;99.90
24402;DHT22;12539;48.808;11.292;2023-04-24T01:13:21;12.90;99.90
24402;DHT22;12539;48.808;11.292;2023-04-24T01:15:47;12.80;99.90
24402;DHT22;12539;48.808;11.292;2023-04-24T01:18:13;12.90;99.90
24402;DHT22;12539;48.808;11.292;2023-04-24T01:20:42;12.80;99.90
24402;DHT22;12539;48.808;11.292;2023-04-24T01:23:10;12.80;99.90
24402;DHT22;12539;48.808;11.292;2023-04-24T01:25:36;12.80;99.90
24402;DHT22;12539;48.808;11.292;2023-04-24T01:28:02;12.80;99.90
24402;DHT22;12539;48.808;11.292;2023-04-24T01:30:28;12.80;99.90
24402;DHT22;12539;48.808;11.292;2023-04-24T01:32:54;12.80;99.90
24402;DHT22;12539;48.808;11.292;2023-04-24T01:35:20;12.80;99.90
24402;DHT22;12539;48.808;11.292;2023-04-24T01:37:46;12.80;99.90
24402;DHT22;12539;48.808;11.292;2023-04-24T01:40:12;12.80;99.90
24402;DHT22;12539;48.808;11.292;2023-04-24T01:42:38;12.70;99.90
24402;DHT22;12539;48.808;11.292;2023-04-24T01:45:04;12.60;99.90
24402;DHT22;12539;48.808;11.292;2023-04-24T01:47:31;12.60;99.90
24402;DHT22;12539;48.808;11.292;2023-04-24T01:49:58;12.60;99.90
24402;DHT22;12539;48.808;11.292;2023-04-24T01:52:24;12.60;99.90
24402;DHT22;12539;48.808;11.292;2023-04-24T01:54:50;12.60;99.90
24402;DHT22;12539;48.808;11.292;2023-04-24T01:57:16;12.60;99.90
24402;DHT22;12539;48.808;11.292;2023-04-24T01:59:42;12.60;99.90
24402;DHT22;12539;48.808;11.292;2023-04-24T02:02:08;12.60;99.90
24402;DHT22;12539;48.808;11.292;2023-04-24T02:04:34;12.50;99.90
24402;DHT22;12539;48.808;11.292;2023-04-24T02:06:59;12.50;99.90
24402;DHT22;12539;48.808;11.292;2023-04-24T02:09:25;12.40;99.90
24402;DHT22;12539;48.808;11.292;2023-04-24T02:11:51;12.40;99.90
24402;DHT22;12539;48.808;11.292;2023-04-24T02:14:16;12.40;99.90
24402;DHT22;12539;48.808;11.292;2023-04-24T02:16:42;12.30;99.90
24402;DHT22;12539;48.808;11.292;2023-04-24T02:19:09;12.20;99.90
24402;DHT22;12539;48.808;11.292;2023-04-24T02:21:35;12.20;99.90
24402;DHT22;12539;48.808;11.292;2023-04-24T02:24:01;12.10;99.90
24402;DHT22;12539;48.808;11.292;2023-04-24T02:26:27;12.10;99.90
24402;DHT22;12539;48.808;11.292;2023-04-24T02:28:52;12.10;99.90
24402;DHT22;12539;48.808;11.292;2023-04-24T02:31:18;12.10;99.90
24402;DHT22;12539;48.808;11.292;2023-04-24T02:33:44;12.10;99.90
24402;DHT22;12539;48.808;11.292;2023-04-24T02:36:09;12.10;99.90
24402;DHT22;12539;48.808;11.292;2023-04-24T02:38:35;12.10;99.90
24402;DHT22;12539;48.808;11.292;2023-04-24T02:41:01;12.20;99.90
24402;DHT22;12539;48.808;11.292;2023-04-24T02:43:27;12.20;99.90
24402;DHT22;12539;48.808;11.292;2023-04-24T02:45:53;12.20;99.90
24402;DHT22;12539;48.808;11.292;2023-04-24T02:48:19;12.20;99.90
24402;DHT22;12539;48.808;11.292;2023-04-24T02:50:46;12.30;99.90
24402;DHT22;12539;48.808;11.292;2023-04-24T02:53:12;12.30;99.90
24402;DHT22;12539;48.808;11.292;2023-04-24T02:55:40;12.30;99.90
24402;DHT22;12539;48.808;11.292;2023-04-24T02:58:05;12.30;99.90
24402;DHT22;12539;48.808;11.292;2023-04-24T03:00:31;12.30;99.90
24402;DHT22;12539;48.808;11.292;2023-04-24T03:02:57;12.30;99.90
24402;DHT22;12539;48.808;11.292;2023-04-24T03:05:22;12.30;99.90
24402;DHT22;12539;48.808;11.292;2023-04-24T03:07:48;12.30;99.90
24402;DHT22;12539;48.808;11.292;2023-04-24T03:10:14;12.30;99.90
24402;DHT22;12539;48.808;11.292;2023-04-24T03:12:40;12.40;99.90
24402;DHT22;12539;48.808;11.292;2023-04-24T03:15:06;12.40;99.90
24402;DHT22;12539;48.808;11.292;2023-04-24T03:17:32;12.50;99.90
24402;DHT22;12539;48.808;11.292;2023-04-24T03:19:58;12.50;99.90
24402;DHT22;12539;48.808;11.292;2023-04-24T03:22:23;12.50;99.90
24402;DHT22;12539;48.808;11.292;2023-04-24T03:24:49;12.50;99.90
24402;DHT22;12539;48.808;11.292;2023-04-24T03:27:15;12.60;99.90
24402;DHT22;12539;48.808;11.292;2023-04-24T03:29:40;12.60;99.90
24402;DHT22;12539;48.808;11.292;2023-04-24T03:32:06;12.70;99.90
24402;DHT22;12539;48.808;11.292;2023-04-24T03:34:31;12.70;99.90
24402;DHT22;12539;48.808;11.292;2023-04-24T03:36:57;12.70;99.90
24402;DHT22;12539;48.808;11.292;2023-04-24T03:39:23;12.70;99.90
24402;DHT22;12539;48.808;11.292;2023-04-24T03:41:50;12.70;99.90
24402;DHT22;12539;48.808;11.292;2023-04-24T03:44:16;12.80;99.90
24402;DHT22;12539;48.808;11.292;2023-04-24T03:46:41;12.70;99.90
24402;DHT22;12539;48.808;11.292;2023-04-24T03:49:07;12.80;99.90
24402;DHT22;12539;48.808;11.292;2023-04-24T03:51:32;12.80;99.90
24402;DHT22;12539;48.808;11.292;2023-04-24T03:53:58;12.70;99.90
24402;DHT22;12539;48.808;11.292;2023-04-24T03:56:24;12.60;99.90
24402;DHT22;12539;48.808;11.292;2023-04-24T03:58:49;12.60;99.90
24402;DHT22;12539;48.808;11.292;2023-04-24T04:01:15;12.50;99.90
24402;DHT22;12539;48.808;11.292;2023-04-24T04:03:41;12.50;99.90
24402;DHT22;12539;48.808;11.292;2023-04-24T04:06:07;12.50;99.90
24402;DHT22;12539;48.808;11.292;2023-04-24T04:08:33;12.40;99.90
24402;DHT22;12539;48.808;11.292;2023-04-24T04:10:58;12.40;99.90
24402;DHT22;12539;48.808;11.292;2023-04-24T04:13:24;12.30;99.90
24402;DHT22;12539;48.808;11.292;2023-04-24T04:15:50;12.40;99.90
24402;DHT22;12539;48.808;11.292;2023-04-24T04:18:15;12.40;99.90
24402;DHT22;12539;48.808;11.292;2023-04-24T04:20:41;12.40;99.90
24402;DHT22;12539;48.808;11.292;2023-04-24T04:23:07;12.40;99.90
24402;DHT22;12539;48.808;11.292;2023-04-24T04:25:32;12.40;99.90
24402;DHT22;12539;48.808;11.292;2023-04-24T04:27:58;12.40;99.90
24402;DHT22;12539;48.808;11.292;2023-04-24T04:30:25;12.40;99.90
24402;DHT22;12539;48.808;11.292;2023-04-24T04:32:51;12.40;99.90
24402;DHT22;12539;48.808;11.292;2023-04-24T04:35:17;12.40;99.90
24402;DHT22;12539;48.808;11.292;2023-04-24T04:37:42;12.40;99.90
24402;DHT22;12539;48.808;11.292;2023-04-24T04:40:08;12.40;99.90
24402;DHT22;12539;48.808;11.292;2023-04-24T04:42:37;12.40;99.90
24402;DHT22;12539;48.808;11.292;2023-04-24T04:45:07;12.30;99.90
24402;DHT22;12539;48.808;11.292;2023-04-24T04:47:34;12.30;99.90
24402;DHT22;12539;48.808;11.292;2023-04-24T04:50:00;12.30;99.90
24402;DHT22;12539;48.808;11.292;2023-04-24T04:52:26;12.30;99.90
24402;DHT22;12539;48.808;11.292;2023-04-24T04:54:52;12.30;99.90
24402;DHT22;12539;48.808;11.292;2023-04-24T04:57:18;12.30;99.90
24402;DHT22;12539;48.808;11.292;2023-04-24T04:59:44;12.30;99.90
24402;DHT22;12539;48.808;11.292;2023-04-24T05:02:10;12.40;99.90
24402;DHT22;12539;48.808;11.292;2023-04-24T05:04:35;12.40;99.90
24402;DHT22;12539;48.808;11.292;2023-04-24T05:07:01;12.40;99.90
24402;DHT22;12539;48.808;11.292;2023-04-24T05:09:27;12.40;99.90
24402;DHT22;12539;48.808;11.292;2023-04-24T05:11:54;12.50;99.90
24402;DHT22;12539;48.808;11.292;2023-04-24T05:14:20;12.50;99.90
24402;DHT22;12539;48.808;11.292;2023-04-24T05:16:46;12.50;99.90
24402;DHT22;12539;48.808;11.292;2023-04-24T05:19:12;12.50;99.90
24402;DHT22;12539;48.808;11.292;2023-04-24T05:21:39;12.40;99.90
24402;DHT22;12539;48.808;11.292;2023-04-24T05:24:05;12.40;99.90
24402;DHT22;12539;48.808;11.292;2023-04-24T05:26:31;12.40;99.90
24402;DHT22;12539;48.808;11.292;2023-04-24T05:28:57;12.30;99.90
24402;DHT22;12539;48.808;11.292;2023-04-24T05:31:22;12.20;99.90
24402;DHT22;12539;48.808;11.292;2023-04-24T05:33:48;12.20;99.90
24402;DHT22;12539;48.808;11.292;2023-04-24T05:36:14;12.30;99.90
24402;DHT22;12539;48.808;11.292;2023-04-24T05:38:40;12.30;99.90
24402;DHT22;12539;48.808;11.292;2023-04-24T05:41:06;12.30;99.90
24402;DHT22;12539;48.808;11.292;2023-04-24T05:43:31;12.50;99.90
24402;DHT22;12539;48.808;11.292;2023-04-24T05:45:57;12.50;99.90
24402;DHT22;12539;48.808;11.292;2023-04-24T05:48:22;12.60;99.90
24402;DHT22;12539;48.808;11.292;2023-04-24T05:50:48;12.60;99.90
24402;DHT22;12539;48.808;11.292;2023-04-24T05:53:14;12.70;99.90
24402;DHT22;12539;48.808;11.292;2023-04-24T05:55:41;12.90;99.90
24402;DHT22;12539;48.808;11.292;2023-04-24T05:58:06;13.00;99.90
24402;DHT22;12539;48.808;11.292;2023-04-24T06:00:32;13.20;99.90
24402;DHT22;12539;48.808;11.292;2023-04-24T06:02:59;13.30;99.90
24402;DHT22;12539;48.808;11.292;2023-04-24T06:05:25;13.40;99.90
24402;DHT22;12539;48.808;11.292;2023-04-24T06:07:51;13.50;99.90
24402;DHT22;12539;48.808;11.292;2023-04-24T06:10:17;13.60;99.90
24402;DHT22;12539;48.808;11.292;2023-04-24T06:12:43;13.60;99.90
24402;DHT22;12539;48.808;11.292;2023-04-24T06:15:09;13.60;99.90
24402;DHT22;12539;48.808;11.292;2023-04-24T06:17:34;13.70;99.90
24402;DHT22;12539;48.808;11.292;2023-04-24T06:20:00;13.70;99.90
24402;DHT22;12539;48.808;11.292;2023-04-24T06:22:26;13.60;99.90
24402;DHT22;12539;48.808;11.292;2023-04-24T06:24:51;13.60;99.90
24402;DHT22;12539;48.808;11.292;2023-04-24T06:27:17;13.60;99.90
24402;DHT22;12539;48.808;11.292;2023-04-24T06:29:43;13.60;99.90
24402;DHT22;12539;48.808;11.292;2023-04-24T06:32:08;13.70;99.90
24402;DHT22;12539;48.808;11.292;2023-04-24T06:34:34;13.70;99.90
24402;DHT22;12539;48.808;11.292;2023-04-24T06:37:01;13.80;99.90
24402;DHT22;12539;48.808;11.292;2023-04-24T06:39:27;13.90;99.90
24402;DHT22;12539;48.808;11.292;2023-04-24T06:41:53;13.90;99.90
24402;DHT22;12539;48.808;11.292;2023-04-24T06:44:18;14.00;99.90
24402;DHT22;12539;48.808;11.292;2023-04-24T06:46:44;14.10;99.90
24402;DHT22;12539;48.808;11.292;2023-04-24T06:49:10;14.20;99.90
24402;DHT22;12539;48.808;11.292;2023-04-24T06:51:36;14.30;99.90
24402;DHT22;12539;48.808;11.292;2023-04-24T06:54:02;14.30;99.90
24402;DHT22;12539;48.808;11.292;2023-04-24T06:56:27;14.40;99.90
24402;DHT22;12539;48.808;11.292;2023-04-24T06:58:54;14.50;99.90
24402;DHT22;12539;48.808;11.292;2023-04-24T07:01:20;14.60;99.90
24402;DHT22;12539;48.808;11.292;2023-04-24T07:03:46;14.70;99.90
24402;DHT22;12539;48.808;11.292;2023-04-24T07:06:11;14.80;99.90
24402;DHT22;12539;48.808;11.292;2023-04-24T07:08:38;14.90;99.90
24402;DHT22;12539;48.808;11.292;2023-04-24T07:11:04;15.10;99.90
24402;DHT22;12539;48.808;11.292;2023-04-24T07:13:29;15.30;99.90
24402;DHT22;12539;48.808;11.292;2023-04-24T07:15:55;15.50;99.90
24402;DHT22;12539;48.808;11.292;2023-04-24T07:18:22;15.70;99.90
24402;DHT22;12539;48.808;11.292;2023-04-24T07:20:48;15.80;99.90
24402;DHT22;12539;48.808;11.292;2023-04-24T07:23:16;15.90;99.40
24402;DHT22;12539;48.808;11.292;2023-04-24T07:25:41;16.00;99.00
24402;DHT22;12539;48.808;11.292;2023-04-24T07:28:07;15.90;98.00
24402;DHT22;12539;48.808;11.292;2023-04-24T07:30:33;15.70;97.50
24402;DHT22;12539;48.808;11.292;2023-04-24T07:32:59;15.40;97.30
24402;DHT22;12539;48.808;11.292;2023-04-24T07:35:44;14.90;97.00
24402;DHT22;12539;48.808;11.292;2023-04-24T07:38:09;14.20;96.60
24402;DHT22;12539;48.808;11.292;2023-04-24T07:40:35;13.60;98.00
24402;DHT22;12539;48.808;11.292;2023-04-24T07:43:01;13.30;98.90
24402;DHT22;12539;48.808;11.292;2023-04-24T07:45:26;12.90;99.40
24402;DHT22;12539;48.808;11.292;2023-04-24T07:47:53;12.70;99.90
24402;DHT22;12539;48.808;11.292;2023-04-24T07:50:19;12.40;99.90
24402;DHT22;12539;48.808;11.292;2023-04-24T07:52:47;12.30;99.90
24402;DHT22;12539;48.808;11.292;2023-04-24T07:55:13;12.20;99.90
24402;DHT22;12539;48.808;11.292;2023-04-24T07:57:39;12.20;99.90
24402;DHT22;12539;48.808;11.292;2023-04-24T08:00:06;12.20;99.90
24402;DHT22;12539;48.808;11.292;2023-04-24T08:02:32;12.30;99.90
24402;DHT22;12539;48.808;11.292;2023-04-24T08:04:57;12.30;99.90
24402;DHT22;12539;48.808;11.292;2023-04-24T08:07:23;12.40;99.90
24402;DHT22;12539;48.808;11.292;2023-04-24T08:09:49;12.40;99.90
24402;DHT22;12539;48.808;11.292;2023-04-24T08:12:15;12.50;99.90
24402;DHT22;12539;48.808;11.292;2023-04-24T08:14:41;12.50;99.90
24402;DHT22;12539;48.808;11.292;2023-04-24T08:17:06;12.50;99.90
24402;DHT22;12539;48.808;11.292;2023-04-24T08:19:32;12.50;99.90
24402;DHT22;12539;48.808;11.292;2023-04-24T08:21:57;12.50;99.90
24402;DHT22;12539;48.808;11.292;2023-04-24T08:24:23;12.70;99.90
24402;DHT22;12539;48.808;11.292;2023-04-24T08:26:49;13.00;99.90
24402;DHT22;12539;48.808;11.292;2023-04-24T08:29:16;13.30;99.90
24402;DHT22;12539;48.808;11.292;2023-04-24T08:31:42;13.60;99.90
24402;DHT22;12539;48.808;11.292;2023-04-24T08:34:09;13.80;99.90
24402;DHT22;12539;48.808;11.292;2023-04-24T08:36:35;14.00;99.90
24402;DHT22;12539;48.808;11.292;2023-04-24T08:39:01;14.10;99.90
24402;DHT22;12539;48.808;11.292;2023-04-24T08:41:27;14.20;99.90
24402;DHT22;12539;48.808;11.292;2023-04-24T08:43:53;14.40;99.90
24402;DHT22;12539;48.808;11.292;2023-04-24T08:46:20;14.70;99.90
24402;DHT22;12539;48.808;11.292;2023-04-24T08:48:48;15.10;99.90
24402;DHT22;12539;48.808;11.292;2023-04-24T08:51:15;15.30;99.90
24402;DHT22;12539;48.808;11.292;2023-04-24T08:53:42;15.50;99.90
24402;DHT22;12539;48.808;11.292;2023-04-24T08:56:26;15.70;99.90
24402;DHT22;12539;48.808;11.292;2023-04-24T08:58:53;15.90;99.40
24402;DHT22;12539;48.808;11.292;2023-04-24T09:01:20;16.00;99.90
24402;DHT22;12539;48.808;11.292;2023-04-24T09:03:48;16.10;99.60
24402;DHT22;12539;48.808;11.292;2023-04-24T09:06:17;16.20;99.50
24402;DHT22;12539;48.808;11.292;2023-04-24T09:08:43;16.30;98.40
24402;DHT22;12539;48.808;11.292;2023-04-24T09:11:11;16.40;97.70
24402;DHT22;12539;48.808;11.292;2023-04-24T09:13:37;16.50;97.60
24402;DHT22;12539;48.808;11.292;2023-04-24T09:16:03;16.60;96.70
24402;DHT22;12539;48.808;11.292;2023-04-24T09:18:29;16.60;96.10
24402;DHT22;12539;48.808;11.292;2023-04-24T09:20:59;16.60;94.20
24402;DHT22;12539;48.808;11.292;2023-04-24T09:23:35;16.70;95.00
24402;DHT22;12539;48.808;11.292;2023-04-24T09:26:02;16.80;93.60
24402;DHT22;12539;48.808;11.292;2023-04-24T09:28:37;16.80;93.40
24402;DHT22;12539;48.808;11.292;2023-04-24T09:31:09;16.90;91.90
24402;DHT22;12539;48.808;11.292;2023-04-24T09:33:35;16.90;92.30
24402;DHT22;12539;48.808;11.292;2023-04-24T09:36:02;16.80;91.80
24402;DHT22;12539;48.808;11.292;2023-04-24T09:38:32;16.70;91.90
24402;DHT22;12539;48.808;11.292;2023-04-24T09:41:05;16.60;90.90
24402;DHT22;12539;48.808;11.292;2023-04-24T09:43:32;16.40;90.80
24402;DHT22;12539;48.808;11.292;2023-04-24T09:45:59;16.10;90.10
24402;DHT22;12539;48.808;11.292;2023-04-24T09:48:37;15.80;90.20
24402;DHT22;12539;48.808;11.292;2023-04-24T09:51:04;15.60;90.10
24402;DHT22;12539;48.808;11.292;2023-04-24T09:53:32;15.50;91.20
24402;DHT22;12539;48.808;11.292;2023-04-24T09:56:09;15.60;91.90
24402;DHT22;12539;48.808;11.292;2023-04-24T09:58:36;15.80;91.90
24402;DHT22;12539;48.808;11.292;2023-04-24T10:01:02;16.00;92.00
24402;DHT22;12539;48.808;11.292;2023-04-24T10:03:32;16.10;91.40
24402;DHT22;12539;48.808;11.292;2023-04-24T10:06:02;16.10;90.90
24402;DHT22;12539;48.808;11.292;2023-04-24T10:08:37;16.20;90.80
24402;DHT22;12539;48.808;11.292;2023-04-24T10:11:03;16.30;90.20
24402;DHT22;12539;48.808;11.292;2023-04-24T10:13:29;16.40;89.70
24402;DHT22;12539;48.808;11.292;2023-04-24T10:15:56;16.40;86.30
24402;DHT22;12539;48.808;11.292;2023-04-24T10:18:26;16.40;87.90
24402;DHT22;12539;48.808;11.292;2023-04-24T10:20:53;16.20;85.40
24402;DHT22;12539;48.808;11.292;2023-04-24T10:23:20;15.90;85.90
24402;DHT22;12539;48.808;11.292;2023-04-24T10:25:46;15.30;86.50
24402;DHT22;12539;48.808;11.292;2023-04-24T10:28:12;14.60;89.10
24402;DHT22;12539;48.808;11.292;2023-04-24T10:30:39;14.00;90.50
24402;DHT22;12539;48.808;11.292;2023-04-24T10:33:08;13.60;92.20
24402;DHT22;12539;48.808;11.292;2023-04-24T10:35:36;13.40;92.90
24402;DHT22;12539;48.808;11.292;2023-04-24T10:38:14;13.40;94.10
24402;DHT22;12539;48.808;11.292;2023-04-24T10:40:42;13.60;95.50
24402;DHT22;12539;48.808;11.292;2023-04-24T10:43:08;13.90;95.60
24402;DHT22;12539;48.808;11.292;2023-04-24T10:45:38;14.10;95.20
24402;DHT22;12539;48.808;11.292;2023-04-24T10:48:06;14.40;95.10
24402;DHT22;12539;48.808;11.292;2023-04-24T10:50:53;14.60;94.80
24402;DHT22;12539;48.808;11.292;2023-04-24T10:53:23;14.70;94.50
24402;DHT22;12539;48.808;11.292;2023-04-24T10:56:12;14.90;94.40
24402;DHT22;12539;48.808;11.292;2023-04-24T10:58:42;15.00;94.20
24402;DHT22;12539;48.808;11.292;2023-04-24T11:01:31;15.10;94.00
24402;DHT22;12539;48.808;11.292;2023-04-24T11:04:02;15.20;93.10
24402;DHT22;12539;48.808;11.292;2023-04-24T11:06:36;15.20;93.20
24402;DHT22;12539;48.808;11.292;2023-04-24T11:11:30;15.50;92.80
24402;DHT22;12539;48.808;11.292;2023-04-24T11:22:00;16.30;90.20
24402;DHT22;12539;48.808;11.292;2023-04-24T11:26:57;16.60;87.10
24402;DHT22;12539;48.808;11.292;2023-04-24T11:32:27;16.70;85.70
24402;DHT22;12539;48.808;11.292;2023-04-24T11:37:21;16.50;84.10
24402;DHT22;12539;48.808;11.292;2023-04-24T11:39:47;16.40;84.30
24402;DHT22;12539;48.808;11.292;2023-04-24T11:42:15;16.30;84.30
24402;DHT22;12539;48.808;11.292;2023-04-24T11:44:42;16.20;83.50
24402;DHT22;12539;48.808;11.292;2023-04-24T11:47:08;16.00;83.90
24402;DHT22;12539;48.808;11.292;2023-04-24T11:49:36;16.00;84.50
24402;DHT22;12539;48.808;11.292;2023-04-24T11:52:04;16.00;81.80
24402;DHT22;12539;48.808;11.292;2023-04-24T11:54:30;16.00;82.00
24402;DHT22;12539;48.808;11.292;2023-04-24T11:56:56;16.10;81.80
24402;DHT22;12539;48.808;11.292;2023-04-24T11:59:22;16.20;81.80
24402;DHT22;12539;48.808;11.292;2023-04-24T12:01:49;16.40;80.60
24402;DHT22;12539;48.808;11.292;2023-04-24T12:04:17;16.60;79.50
24402;DHT22;12539;48.808;11.292;2023-04-24T12:06:59;16.80;77.70
24402;DHT22;12539;48.808;11.292;2023-04-24T12:09:25;16.90;75.10
24402;DHT22;12539;48.808;11.292;2023-04-24T12:11:56;16.70;74.20
24402;DHT22;12539;48.808;11.292;2023-04-24T12:14:22;16.40;73.70
24402;DHT22;12539;48.808;11.292;2023-04-24T12:16:50;16.10;74.40
24402;DHT22;12539;48.808;11.292;2023-04-24T12:19:22;15.90;75.40
24402;DHT22;12539;48.808;11.292;2023-04-24T12:22:06;15.70;74.50
24402;DHT22;12539;48.808;11.292;2023-04-24T12:24:32;15.50;75.10
24402;DHT22;12539;48.808;11.292;2023-04-24T12:26:58;15.50;75.90
24402;DHT22;12539;48.808;11.292;2023-04-24T12:29:24;15.70;75.30
24402;DHT22;12539;48.808;11.292;2023-04-24T12:31:51;15.80;74.00
24402;DHT22;12539;48.808;11.292;2023-04-24T12:34:21;16.00;73.70
24402;DHT22;12539;48.808;11.292;2023-04-24T12:36:47;16.10;72.80
24402;DHT22;12539;48.808;11.292;2023-04-24T12:39:20;16.20;72.20
24402;DHT22;12539;48.808;11.292;2023-04-24T12:41:55;16.40;72.40
24402;DHT22;12539;48.808;11.292;2023-04-24T12:44:34;16.50;72.40
24402;DHT22;12539;48.808;11.292;2023-04-24T12:47:02;16.50;71.70
24402;DHT22;12539;48.808;11.292;2023-04-24T12:49:29;16.50;71.30
24402;DHT22;12539;48.808;11.292;2023-04-24T12:51:55;16.50;69.10
24402;DHT22;12539;48.808;11.292;2023-04-24T12:54:22;16.50;69.00
24402;DHT22;12539;48.808;11.292;2023-04-24T12:56:47;16.40;69.00
24402;DHT22;12539;48.808;11.292;2023-04-24T12:59:13;16.20;68.00
24402;DHT22;12539;48.808;11.292;2023-04-24T13:01:39;16.10;68.10
24402;DHT22;12539;48.808;11.292;2023-04-24T13:04:05;16.10;68.30
24402;DHT22;12539;48.808;11.292;2023-04-24T13:06:31;16.20;67.60
24402;DHT22;12539;48.808;11.292;2023-04-24T13:08:57;16.20;66.40
24402;DHT22;12539;48.808;11.292;2023-04-24T13:11:23;16.20;66.70
24402;DHT22;12539;48.808;11.292;2023-04-24T13:13:50;16.20;66.90
24402;DHT22;12539;48.808;11.292;2023-04-24T13:16:16;16.20;65.40
24402;DHT22;12539;48.808;11.292;2023-04-24T13:18:42;16.20;63.90
24402;DHT22;12539;48.808;11.292;2023-04-24T13:21:08;16.20;65.30
24402;DHT22;12539;48.808;11.292;2023-04-24T13:23:33;16.40;67.30
24402;DHT22;12539;48.808;11.292;2023-04-24T13:26:00;16.40;66.30
24402;DHT22;12539;48.808;11.292;2023-04-24T13:28:26;16.20;64.90
24402;DHT22;12539;48.808;11.292;2023-04-24T13:30:52;16.00;65.80
24402;DHT22;12539;48.808;11.292;2023-04-24T13:33:18;15.90;65.80
24402;DHT22;12539;48.808;11.292;2023-04-24T13:35:43;15.90;66.00
24402;DHT22;12539;48.808;11.292;2023-04-24T13:38:09;16.00;65.00
24402;DHT22;12539;48.808;11.292;2023-04-24T13:40:35;16.00;64.10
24402;DHT22;12539;48.808;11.292;2023-04-24T13:43:01;16.10;65.20
24402;DHT22;12539;48.808;11.292;2023-04-24T13:45:27;16.10;63.60
24402;DHT22;12539;48.808;11.292;2023-04-24T13:47:53;16.10;64.80
24402;DHT22;12539;48.808;11.292;2023-04-24T13:50:22;16.10;64.10
24402;DHT22;12539;48.808;11.292;2023-04-24T13:52:48;16.00;64.60
24402;DHT22;12539;48.808;11.292;2023-04-24T13:55:14;15.90;63.50
24402;DHT22;12539;48.808;11.292;2023-04-24T13:57:39;15.80;64.60
24402;DHT22;12539;48.808;11.292;2023-04-24T14:00:06;15.80;63.60
24402;DHT22;12539;48.808;11.292;2023-04-24T14:02:32;15.90;64.50
24402;DHT22;12539;48.808;11.292;2023-04-24T14:04:57;15.90;64.60
24402;DHT22;12539;48.808;11.292;2023-04-24T14:07:23;15.90;64.20
24402;DHT22;12539;48.808;11.292;2023-04-24T14:09:49;16.00;65.00
24402;DHT22;12539;48.808;11.292;2023-04-24T14:12:15;16.10;65.10
24402;DHT22;12539;48.808;11.292;2023-04-24T14:14:43;16.20;66.20
24402;DHT22;12539;48.808;11.292;2023-04-24T14:17:09;16.20;63.20
24402;DHT22;12539;48.808;11.292;2023-04-24T14:19:35;16.00;63.80
24402;DHT22;12539;48.808;11.292;2023-04-24T14:22:01;15.80;63.10
24402;DHT22;12539;48.808;11.292;2023-04-24T14:24:26;15.50;64.50
24402;DHT22;12539;48.808;11.292;2023-04-24T14:26:52;15.40;63.90
24402;DHT22;12539;48.808;11.292;2023-04-24T14:29:18;15.10;65.80
24402;DHT22;12539;48.808;11.292;2023-04-24T14:32:05;14.90;65.20
24402;DHT22;12539;48.808;11.292;2023-04-24T14:34:31;14.80;67.70
24402;DHT22;12539;48.808;11.292;2023-04-24T14:36:57;14.70;68.20
24402;DHT22;12539;48.808;11.292;2023-04-24T14:39:24;14.70;70.10
24402;DHT22;12539;48.808;11.292;2023-04-24T14:41:51;14.70;69.60
24402;DHT22;12539;48.808;11.292;2023-04-24T14:44:17;14.80;70.40
24402;DHT22;12539;48.808;11.292;2023-04-24T14:46:42;14.90;69.20
24402;DHT22;12539;48.808;11.292;2023-04-24T14:49:09;15.10;69.10
24402;DHT22;12539;48.808;11.292;2023-04-24T14:51:36;15.20;66.60
24402;DHT22;12539;48.808;11.292;2023-04-24T14:54:01;15.30;67.20
24402;DHT22;12539;48.808;11.292;2023-04-24T14:56:28;15.30;66.20
24402;DHT22;12539;48.808;11.292;2023-04-24T14:58:53;15.40;67.80
24402;DHT22;12539;48.808;11.292;2023-04-24T15:01:20;15.40;67.10
24402;DHT22;12539;48.808;11.292;2023-04-24T15:03:46;15.30;67.70
24402;DHT22;12539;48.808;11.292;2023-04-24T15:06:12;15.20;67.30
24402;DHT22;12539;48.808;11.292;2023-04-24T15:08:38;15.00;67.70
24402;DHT22;12539;48.808;11.292;2023-04-24T15:11:03;14.90;68.40
24402;DHT22;12539;48.808;11.292;2023-04-24T15:13:29;14.80;68.70
24402;DHT22;12539;48.808;11.292;2023-04-24T15:15:55;14.70;69.30
24402;DHT22;12539;48.808;11.292;2023-04-24T15:18:21;14.80;70.70
24402;DHT22;12539;48.808;11.292;2023-04-24T15:20:47;14.80;71.00
24402;DHT22;12539;48.808;11.292;2023-04-24T15:23:12;14.90;70.50
24402;DHT22;12539;48.808;11.292;2023-04-24T15:25:38;14.90;70.20
24402;DHT22;12539;48.808;11.292;2023-04-24T15:28:04;15.00;70.80
24402;DHT22;12539;48.808;11.292;2023-04-24T15:30:31;15.10;69.50